createdAt,value
2023-03-20T00:00:01.126Z,12.96
2023-03-20T00:02:31.139Z,12.89
2023-03-20T00:05:00.852Z,12.84
2023-03-20T00:07:31.041Z,12.83
2023-03-20T00:10:00.853Z,12.83
2023-03-20T00:12:30.251Z,12.83
2023-03-20T00:15:03.729Z,12.76
2023-03-20T00:17:32.573Z,12.65
2023-03-20T00:20:01.666Z,12.60
2023-03-20T00:22:33.438Z,12.59
2023-03-20T00:25:02.462Z,12.58
2023-03-20T00:27:31.922Z,12.58
2023-03-20T00:30:01.497Z,12.54
2023-03-20T00:32:30.756Z,12.45
2023-03-20T00:34:59.973Z,12.41
2023-03-20T00:37:29.443Z,12.31
2023-03-20T00:39:58.872Z,12.22
2023-03-20T00:42:28.190Z,12.20
2023-03-20T00:44:58.833Z,12.22
2023-03-20T00:47:29.210Z,12.27
2023-03-20T00:49:58.500Z,12.26
2023-03-20T00:52:28.301Z,12.18
2023-03-20T00:54:57.931Z,12.10
2023-03-20T00:57:31.190Z,12.07
2023-03-20T01:00:05.788Z,12.03
2023-03-20T01:02:35.158Z,12.04
2023-03-20T01:05:06.156Z,12.11
2023-03-20T01:07:35.689Z,12.15
2023-03-20T01:10:06.449Z,12.14
2023-03-20T01:12:35.641Z,12.24
2023-03-20T01:15:16.533Z,12.34
2023-03-20T01:17:47.296Z,12.43
2023-03-20T01:20:29.036Z,12.54
2023-03-20T01:22:57.704Z,12.62
2023-03-20T01:25:26.709Z,12.71
2023-03-20T01:27:56.200Z,12.75
2023-03-20T01:30:31.479Z,12.73
2023-03-20T01:33:02.134Z,12.76
2023-03-20T01:35:31.258Z,12.81
2023-03-20T01:37:59.890Z,12.87
2023-03-20T01:40:34.143Z,12.86
2023-03-20T01:43:06.153Z,12.76
2023-03-20T01:45:36.673Z,12.71
2023-03-20T01:48:18.044Z,12.68
2023-03-20T01:50:47.365Z,12.70
2023-03-20T01:53:21.337Z,12.76
2023-03-20T01:55:54.499Z,12.74
2023-03-20T01:58:37.685Z,12.74
2023-03-20T02:01:10.365Z,12.76
2023-03-20T02:03:39.126Z,12.77
2023-03-20T02:06:10.121Z,12.76
2023-03-20T02:08:47.330Z,12.76
2023-03-20T02:11:19.683Z,12.74
2023-03-20T02:13:50.481Z,12.73
2023-03-20T02:16:20.988Z,12.69
2023-03-20T02:18:52.736Z,12.62
2023-03-20T02:22:05.005Z,12.61
2023-03-20T02:25:16.288Z,12.61
2023-03-20T02:28:07.275Z,12.60
2023-03-20T02:30:47.237Z,12.56
2023-03-20T02:33:46.989Z,12.55
2023-03-20T02:36:27.776Z,12.57
2023-03-20T02:39:00.252Z,12.60
2023-03-20T02:41:33.974Z,12.58
2023-03-20T02:44:14.779Z,12.57
2023-03-20T02:47:16.201Z,12.58
2023-03-20T02:50:14.327Z,12.60
2023-03-20T02:53:00.045Z,12.63
2023-03-20T02:55:34.832Z,12.63
2023-03-20T02:58:35.974Z,12.65
2023-03-20T03:01:37.168Z,12.60
2023-03-20T03:04:18.718Z,12.59
2023-03-20T03:06:52.078Z,12.55
2023-03-20T03:09:25.823Z,12.50
2023-03-20T03:12:02.715Z,12.48
2023-03-20T03:14:57.194Z,12.51
2023-03-20T03:17:28.515Z,12.53
2023-03-20T03:20:06.058Z,12.57
2023-03-20T03:22:36.749Z,12.62
2023-03-20T03:25:07.120Z,12.73
2023-03-20T03:27:43.767Z,12.84
2023-03-20T03:30:22.741Z,12.86
2023-03-20T03:33:17.684Z,12.79
2023-03-20T03:35:48.377Z,12.72
2023-03-20T03:38:45.046Z,12.74
2023-03-20T03:41:23.703Z,12.74
2023-03-20T03:44:22.798Z,12.79
2023-03-20T03:47:09.701Z,12.82
2023-03-20T03:49:43.946Z,12.88
2023-03-20T03:52:17.993Z,12.96
2023-03-20T03:55:10.463Z,12.97
2023-03-20T03:57:50.769Z,12.94
2023-03-20T04:00:24.097Z,12.93
2023-03-20T04:02:57.144Z,12.92
2023-03-20T04:05:35.434Z,12.91
2023-03-20T04:08:06.702Z,12.88
2023-03-20T04:10:35.717Z,12.89
2023-03-20T04:13:04.820Z,12.92
2023-03-20T04:15:34.216Z,13.01
2023-03-20T04:18:03.271Z,13.07
2023-03-20T04:20:32.061Z,13.06
2023-03-20T04:23:02.408Z,13.10
2023-03-20T04:25:31.483Z,13.18
2023-03-20T04:28:00.464Z,13.25
2023-03-20T04:30:29.661Z,13.25
2023-03-20T04:32:58.900Z,13.21
2023-03-20T04:35:28.313Z,13.21
2023-03-20T04:37:57.752Z,13.24
2023-03-20T04:40:27.687Z,13.21
2023-03-20T04:42:57.070Z,13.16
2023-03-20T04:45:26.135Z,13.11
2023-03-20T04:47:55.195Z,13.06
2023-03-20T04:50:24.971Z,12.99
2023-03-20T04:52:54.353Z,12.90
2023-03-20T04:55:24.540Z,12.86
2023-03-20T04:57:53.521Z,12.85
2023-03-20T05:00:23.101Z,12.86
2023-03-20T05:02:52.116Z,12.85
2023-03-20T05:05:21.551Z,12.76
2023-03-20T05:07:50.674Z,12.71
2023-03-20T05:10:19.957Z,12.73
2023-03-20T05:12:49.247Z,12.74
2023-03-20T05:15:18.711Z,12.76
2023-03-20T05:17:51.597Z,12.76
2023-03-20T05:20:20.869Z,12.79
2023-03-20T05:22:51.663Z,12.86
2023-03-20T05:25:20.343Z,12.93
2023-03-20T05:27:49.614Z,12.94
2023-03-20T05:30:19.973Z,12.85
2023-03-20T05:32:53.004Z,12.83
2023-03-20T05:35:21.969Z,12.78
2023-03-20T05:37:50.948Z,12.84
2023-03-20T05:40:21.118Z,12.83
2023-03-20T05:42:50.379Z,12.77
2023-03-20T05:45:20.078Z,12.72
2023-03-20T05:47:49.366Z,12.71
2023-03-20T05:50:18.416Z,12.68
2023-03-20T05:52:51.483Z,12.62
2023-03-20T05:55:20.826Z,12.62
2023-03-20T05:57:51.109Z,12.67
2023-03-20T06:00:20.986Z,12.67
2023-03-20T06:02:50.146Z,12.60
2023-03-20T06:05:19.175Z,12.56
2023-03-20T06:07:48.646Z,12.63
2023-03-20T06:10:17.799Z,12.67
2023-03-20T06:12:47.317Z,12.75
2023-03-20T06:15:16.388Z,12.76
2023-03-20T06:17:45.508Z,12.75
2023-03-20T06:20:14.688Z,12.79
2023-03-20T06:22:43.821Z,12.86
2023-03-20T06:25:12.950Z,12.89
2023-03-20T06:27:42.317Z,12.91
2023-03-20T06:30:13.187Z,12.97
2023-03-20T06:32:42.321Z,13.05
2023-03-20T06:35:12.405Z,13.15
2023-03-20T06:37:42.054Z,13.19
2023-03-20T06:40:12.029Z,13.24
2023-03-20T06:42:41.455Z,13.27
2023-03-20T06:45:11.662Z,13.34
2023-03-20T06:47:41.058Z,13.37
2023-03-20T06:50:11.314Z,13.41
2023-03-20T06:52:40.453Z,13.47
2023-03-20T06:55:09.912Z,13.55
2023-03-20T06:57:39.444Z,13.56
2023-03-20T07:00:10.733Z,13.53
2023-03-20T07:02:39.682Z,13.55
2023-03-20T07:05:10.737Z,13.51
2023-03-20T07:07:39.902Z,13.49
2023-03-20T07:10:10.528Z,13.47
2023-03-20T07:12:39.705Z,13.49
2023-03-20T07:15:09.421Z,13.41
2023-03-20T07:17:38.567Z,13.43
2023-03-20T07:20:08.900Z,13.43
2023-03-20T07:22:38.180Z,13.46
2023-03-20T07:25:08.878Z,13.52
2023-03-20T07:27:38.859Z,13.56
2023-03-20T07:30:09.449Z,13.53
2023-03-20T07:32:40.364Z,13.50
2023-03-20T07:35:09.851Z,13.52
2023-03-20T07:37:39.388Z,13.53
2023-03-20T07:40:09.708Z,13.54
2023-03-20T07:42:38.914Z,13.57
2023-03-20T07:45:08.412Z,13.57
2023-03-20T07:47:38.122Z,13.61
2023-03-20T07:50:08.408Z,13.69
2023-03-20T07:52:38.002Z,13.77
2023-03-20T07:55:07.948Z,13.78
2023-03-20T07:57:37.251Z,13.78
2023-03-20T08:00:07.634Z,13.81
2023-03-20T08:02:36.976Z,13.87
2023-03-20T08:05:08.104Z,13.85
2023-03-20T08:07:38.242Z,13.81
2023-03-20T08:10:08.106Z,13.86
2023-03-20T08:12:37.675Z,13.96
2023-03-20T08:15:07.212Z,13.99
2023-03-20T08:17:36.663Z,14.02
2023-03-20T08:20:07.935Z,14.00
2023-03-20T08:22:37.419Z,13.99
2023-03-20T08:25:07.948Z,14.01
2023-03-20T08:27:39.259Z,14.07
2023-03-20T08:30:10.095Z,14.15
2023-03-20T08:32:39.569Z,14.16
2023-03-20T08:35:22.005Z,14.20
2023-03-20T08:37:59.117Z,14.16
2023-03-20T08:40:28.548Z,14.23
2023-03-20T08:42:58.498Z,14.19
2023-03-20T08:45:27.589Z,14.16
2023-03-20T08:47:57.130Z,14.20
2023-03-20T08:50:26.059Z,14.30
2023-03-20T08:52:55.264Z,14.43
2023-03-20T08:55:24.422Z,14.51
2023-03-20T08:57:54.955Z,14.58
2023-03-20T09:00:25.187Z,14.68
2023-03-20T09:02:55.438Z,14.72
2023-03-20T09:05:24.618Z,14.69
2023-03-20T09:07:53.448Z,14.68
2023-03-20T09:10:23.133Z,14.63
2023-03-20T09:12:52.669Z,14.66
2023-03-20T09:15:21.774Z,14.73
2023-03-20T09:17:51.424Z,14.74
2023-03-20T09:20:21.670Z,14.63
2023-03-20T09:22:52.072Z,14.51
2023-03-20T09:25:23.396Z,14.44
2023-03-20T09:27:55.810Z,14.47
2023-03-20T09:30:25.573Z,14.41
2023-03-20T09:32:55.136Z,14.34
2023-03-20T09:35:24.365Z,14.41
2023-03-20T09:37:54.913Z,14.47
2023-03-20T09:40:29.402Z,14.50
2023-03-20T09:43:10.613Z,14.48
2023-03-20T09:46:05.328Z,14.43
2023-03-20T09:48:46.051Z,14.34
2023-03-20T09:51:39.307Z,14.27
2023-03-20T09:54:53.079Z,14.12
2023-03-20T09:57:27.853Z,13.93
2023-03-20T10:00:07.928Z,13.97
2023-03-20T10:02:55.570Z,13.92
2023-03-20T10:05:29.773Z,13.86
2023-03-20T10:08:03.037Z,13.82
2023-03-20T10:10:54.030Z,13.85
2023-03-20T10:13:32.356Z,13.85
2023-03-20T10:16:16.846Z,13.85
2023-03-20T10:18:57.846Z,13.88
2023-03-20T10:21:40.484Z,13.92
2023-03-20T10:24:20.356Z,13.94
2023-03-20T10:26:54.137Z,13.95
2023-03-20T10:30:08.353Z,14.01
2023-03-20T10:32:49.739Z,13.95
2023-03-20T10:35:47.794Z,13.98
2023-03-20T10:38:48.123Z,13.97
2023-03-20T10:41:22.570Z,13.87
2023-03-20T10:43:55.116Z,13.86
2023-03-20T10:46:44.117Z,13.97
2023-03-20T10:49:13.522Z,14.13
2023-03-20T10:51:50.434Z,14.37
2023-03-20T10:54:27.376Z,14.52
2023-03-20T10:57:02.499Z,14.40
2023-03-20T10:59:52.692Z,14.56
2023-03-20T11:02:25.642Z,15.00
2023-03-20T11:04:55.314Z,15.63
2023-03-20T11:07:37.037Z,16.09
2023-03-20T11:10:05.918Z,16.48
2023-03-20T11:12:41.679Z,17.02
2023-03-20T11:15:35.087Z,17.63
2023-03-20T11:18:14.590Z,18.08
2023-03-20T11:20:48.631Z,18.44
2023-03-20T11:23:21.442Z,18.63
2023-03-20T11:25:53.503Z,18.89
2023-03-20T11:28:31.894Z,19.38
2023-03-20T11:31:06.606Z,19.71
2023-03-20T11:33:42.061Z,20.01
2023-03-20T11:36:27.812Z,20.18
2023-03-20T11:39:08.047Z,20.84
2023-03-20T11:41:52.581Z,21.50
2023-03-20T11:44:38.226Z,21.94
2023-03-20T11:47:16.287Z,21.92
2023-03-20T11:49:58.152Z,22.06
2023-03-20T11:52:33.870Z,22.50
2023-03-20T11:55:21.318Z,22.64
2023-03-20T11:57:57.337Z,22.29
2023-03-20T12:00:38.224Z,22.15
2023-03-20T12:03:46.575Z,22.08
2023-03-20T12:06:20.129Z,22.11
2023-03-20T12:09:04.343Z,22.44
2023-03-20T12:11:51.358Z,22.53
2023-03-20T12:14:26.025Z,22.44
2023-03-20T12:17:20.421Z,22.42
2023-03-20T12:19:52.432Z,22.26
2023-03-20T12:22:33.010Z,22.15
2023-03-20T12:25:11.443Z,21.97
2023-03-20T12:27:49.471Z,21.77
2023-03-20T12:30:55.676Z,21.58
2023-03-20T12:33:43.396Z,21.42
2023-03-20T12:36:30.850Z,21.10
2023-03-20T12:39:03.490Z,20.81
2023-03-20T12:41:52.010Z,20.80
2023-03-20T12:44:27.675Z,20.73
2023-03-20T12:47:24.884Z,20.79
2023-03-20T12:50:12.261Z,20.66
2023-03-20T12:52:46.622Z,20.74
2023-03-20T12:55:33.963Z,20.79
2023-03-20T12:58:42.303Z,20.83
2023-03-20T13:01:33.306Z,20.91
2023-03-20T13:04:08.524Z,20.77
2023-03-20T13:06:54.213Z,20.63
2023-03-20T13:09:48.740Z,20.52
2023-03-20T13:13:02.491Z,20.35
2023-03-20T13:15:43.954Z,20.25
2023-03-20T13:18:16.219Z,20.38
2023-03-20T13:20:45.725Z,20.39
2023-03-20T13:23:20.782Z,20.28
2023-03-20T13:26:00.611Z,20.69
2023-03-20T13:28:46.537Z,20.51
2023-03-20T13:31:43.513Z,20.19
2023-03-20T13:34:22.459Z,19.77
2023-03-20T13:37:24.130Z,19.64
2023-03-20T13:40:16.631Z,19.40
2023-03-20T13:42:55.029Z,19.43
2023-03-20T13:45:32.077Z,19.52
2023-03-20T13:48:16.948Z,19.65
2023-03-20T13:50:56.088Z,20.10
2023-03-20T13:53:44.331Z,20.62
2023-03-20T13:56:23.431Z,20.96
2023-03-20T13:59:31.512Z,21.04
2023-03-20T14:02:25.057Z,20.85
2023-03-20T14:05:12.130Z,21.03
2023-03-20T14:07:45.470Z,21.03
2023-03-20T14:10:38.693Z,21.30
2023-03-20T14:13:16.311Z,21.32
2023-03-20T14:15:56.082Z,21.37
2023-03-20T14:18:27.493Z,22.45
2023-03-20T14:21:01.312Z,23.86
2023-03-20T14:23:48.248Z,24.77
2023-03-20T14:26:21.362Z,24.98
2023-03-20T14:28:52.180Z,25.51
2023-03-20T14:31:33.142Z,25.76
2023-03-20T14:34:12.590Z,26.31
2023-03-20T14:36:45.460Z,26.65
2023-03-20T14:39:46.451Z,26.87
2023-03-20T14:42:51.944Z,27.37
2023-03-20T14:45:40.206Z,27.59
2023-03-20T14:48:24.347Z,27.59
2023-03-20T14:51:25.600Z,27.40
2023-03-20T14:54:19.260Z,27.61
2023-03-20T14:56:50.130Z,27.76
2023-03-20T14:59:25.359Z,28.07
2023-03-20T15:01:59.784Z,28.30
2023-03-20T15:04:42.822Z,28.13
2023-03-20T15:07:16.507Z,27.34
2023-03-20T15:09:50.195Z,26.55
2023-03-20T15:12:26.944Z,26.15
2023-03-20T15:15:00.523Z,25.55
2023-03-20T15:17:40.290Z,25.01
2023-03-20T15:20:30.406Z,24.18
2023-03-20T15:23:02.276Z,23.45
2023-03-20T15:25:44.632Z,22.88
2023-03-20T15:28:27.011Z,22.54
2023-03-20T15:31:02.171Z,22.24
2023-03-20T15:33:37.243Z,22.44
2023-03-20T15:36:18.051Z,22.87
2023-03-20T15:38:49.039Z,22.76
2023-03-20T15:41:30.926Z,22.62
2023-03-20T15:44:15.440Z,22.48
2023-03-20T15:46:58.412Z,22.20
2023-03-20T15:49:29.667Z,21.72
2023-03-20T15:52:02.911Z,21.26
2023-03-20T15:54:33.829Z,20.81
2023-03-20T15:57:06.039Z,20.48
2023-03-20T15:59:36.333Z,20.28
2023-03-20T16:02:05.852Z,20.42
2023-03-20T16:04:35.263Z,20.64
2023-03-20T16:07:05.828Z,20.45
2023-03-20T16:09:46.094Z,20.36
2023-03-20T16:12:18.115Z,19.98
2023-03-20T16:14:49.914Z,19.80
2023-03-20T16:17:21.186Z,19.67
2023-03-20T16:19:51.867Z,19.48
2023-03-20T16:22:33.664Z,19.28
2023-03-20T16:25:03.441Z,19.11
2023-03-20T16:27:37.931Z,19.02
2023-03-20T16:30:15.942Z,18.88
2023-03-20T16:32:51.563Z,18.76
2023-03-20T16:35:27.239Z,18.72
2023-03-20T16:38:00.068Z,18.74
2023-03-20T16:40:38.107Z,18.84
2023-03-20T16:43:18.303Z,18.89
2023-03-20T16:45:58.082Z,18.78
2023-03-20T16:48:32.539Z,18.58
2023-03-20T16:51:33.278Z,18.36
2023-03-20T16:54:05.273Z,18.08
2023-03-20T16:56:38.303Z,17.93
2023-03-20T16:59:19.136Z,17.74
2023-03-20T17:01:49.655Z,17.55
2023-03-20T17:04:21.204Z,17.40
2023-03-20T17:06:59.610Z,17.23
2023-03-20T17:09:31.913Z,17.02
2023-03-20T17:12:18.234Z,16.82
2023-03-20T17:14:47.652Z,16.50
2023-03-20T17:17:20.543Z,16.40
2023-03-20T17:19:53.894Z,16.28
2023-03-20T17:22:25.797Z,16.16
2023-03-20T17:24:55.332Z,16.01
2023-03-20T17:27:25.083Z,16.00
2023-03-20T17:29:56.438Z,15.98
2023-03-20T17:32:26.602Z,15.92
2023-03-20T17:34:55.996Z,15.88
2023-03-20T17:37:29.857Z,15.85
2023-03-20T17:40:00.975Z,15.82
2023-03-20T17:42:31.848Z,15.79
2023-03-20T17:45:04.228Z,15.74
2023-03-20T17:47:34.085Z,15.68
2023-03-20T17:50:04.239Z,15.62
2023-03-20T17:52:33.722Z,15.55
2023-03-20T17:55:03.948Z,15.48
2023-03-20T17:57:39.335Z,15.31
2023-03-20T18:00:25.506Z,15.12
2023-03-20T18:02:54.804Z,15.00
2023-03-20T18:05:25.209Z,14.92
2023-03-20T18:07:57.863Z,14.90
2023-03-20T18:10:37.001Z,14.97
2023-03-20T18:13:07.085Z,15.04
2023-03-20T18:15:39.774Z,15.14
2023-03-20T18:18:10.644Z,15.17
2023-03-20T18:20:44.321Z,15.18
2023-03-20T18:23:14.979Z,15.18
2023-03-20T18:25:45.315Z,15.16
2023-03-20T18:28:21.082Z,15.16
2023-03-20T18:30:52.546Z,15.09
2023-03-20T18:33:28.390Z,15.03
2023-03-20T18:35:58.181Z,14.90
2023-03-20T18:38:31.544Z,14.81
2023-03-20T18:41:02.482Z,14.74
2023-03-20T18:43:35.908Z,14.75
2023-03-20T18:46:06.529Z,14.82
2023-03-20T18:48:36.493Z,14.83
2023-03-20T18:51:06.847Z,14.83
2023-03-20T18:53:36.192Z,14.84
2023-03-20T18:56:19.651Z,14.87
2023-03-20T18:58:49.811Z,14.86
2023-03-20T19:01:20.352Z,14.83
2023-03-20T19:03:50.723Z,14.73
2023-03-20T19:06:24.240Z,14.64
2023-03-20T19:08:54.974Z,14.59
2023-03-20T19:11:27.124Z,14.51
2023-03-20T19:13:56.985Z,14.40
2023-03-20T19:16:29.010Z,14.29
2023-03-20T19:19:02.346Z,14.18
2023-03-20T19:21:34.920Z,14.09
2023-03-20T19:24:06.766Z,14.01
2023-03-20T19:26:38.025Z,13.95
2023-03-20T19:29:10.557Z,13.88
2023-03-20T19:31:39.787Z,13.83
2023-03-20T19:34:24.052Z,13.72
2023-03-20T19:36:57.998Z,13.57
2023-03-20T19:39:28.326Z,13.47
2023-03-20T19:42:15.248Z,13.41
2023-03-20T19:44:49.463Z,13.34
2023-03-20T19:47:20.209Z,13.23
2023-03-20T19:49:50.750Z,13.12
2023-03-20T19:52:34.952Z,13.08
2023-03-20T19:55:05.336Z,13.02
2023-03-20T19:57:34.553Z,13.00
2023-03-20T20:02:54.830Z,12.81
2023-03-20T20:05:35.814Z,12.80
2023-03-20T20:08:24.351Z,12.72
2023-03-20T20:10:56.816Z,12.59
2023-03-20T20:13:33.576Z,12.44
2023-03-20T20:16:04.168Z,12.37
2023-03-20T20:18:34.096Z,12.35
2023-03-20T20:23:53.389Z,12.34
2023-03-20T20:26:24.294Z,12.40
2023-03-20T20:28:54.015Z,12.47
2023-03-20T20:31:31.951Z,12.48
2023-03-20T20:34:58.472Z,12.39
2023-03-20T20:37:51.195Z,12.27
2023-03-20T20:39:47.305Z,12.24
2023-03-20T20:42:18.127Z,12.25
2023-03-20T20:44:48.905Z,12.20
2023-03-20T20:47:19.338Z,12.08
2023-03-20T20:49:50.180Z,12.04
2023-03-20T20:52:20.498Z,12.07
2023-03-20T20:54:51.617Z,12.01
2023-03-20T20:57:23.435Z,11.89
2023-03-20T20:59:59.696Z,11.78
2023-03-20T21:02:30.977Z,11.73
2023-03-20T21:05:00.882Z,11.73
2023-03-20T21:07:31.742Z,11.74
2023-03-20T21:10:00.981Z,11.69
2023-03-20T21:12:38.158Z,11.69
2023-03-20T21:15:09.604Z,11.66
2023-03-20T21:17:50.334Z,11.64
2023-03-20T21:20:27.310Z,11.53
2023-03-20T21:22:56.249Z,11.45
2023-03-20T21:25:39.188Z,11.43
2023-03-20T21:28:10.980Z,11.32
2023-03-20T21:30:54.629Z,11.23
2023-03-20T21:33:33.650Z,11.06
2023-03-20T21:36:04.511Z,11.02
2023-03-20T21:41:24.929Z,11.02
2023-03-20T21:43:54.201Z,10.96
2023-03-20T21:55:57.532Z,10.91
2023-03-20T22:01:16.168Z,10.86
2023-03-20T22:03:45.277Z,10.86
2023-03-20T22:18:12.140Z,10.30
2023-03-20T22:21:15.646Z,10.14
2023-03-20T22:24:01.708Z,10.14
2023-03-20T22:27:07.108Z,10.15
2023-03-20T22:29:39.349Z,10.15
2023-03-20T22:32:35.022Z,10.08
2023-03-20T22:35:22.982Z,10.07
2023-03-20T22:38:12.857Z,10.09
2023-03-20T22:44:07.850Z,10.06
2023-03-20T22:46:09.936Z,10.08
2023-03-20T22:48:46.085Z,10.11
2023-03-20T22:51:16.531Z,10.10
2023-03-20T22:53:49.041Z,10.08
2023-03-20T22:56:19.317Z,10.08
2023-03-20T22:58:49.303Z,10.08
2023-03-20T23:01:18.377Z,10.07
2023-03-20T23:03:48.120Z,10.07
2023-03-20T23:06:23.145Z,10.03
2023-03-20T23:08:56.463Z,9.95
2023-03-20T23:11:28.157Z,9.84
2023-03-20T23:13:57.611Z,9.78
2023-03-20T23:16:27.116Z,9.74
2023-03-20T23:18:57.517Z,9.72
2023-03-20T23:21:28.484Z,9.67
2023-03-20T23:23:57.748Z,9.63
2023-03-20T23:26:26.678Z,9.65
2023-03-20T23:28:56.582Z,9.68
2023-03-20T23:31:27.364Z,9.73
2023-03-20T23:33:58.304Z,9.73
2023-03-20T23:36:37.306Z,9.71
2023-03-20T23:39:08.910Z,9.69
2023-03-20T23:44:28.173Z,9.77
2023-03-20T23:46:58.595Z,9.79
2023-03-20T23:49:29.552Z,9.84
2023-03-20T23:51:58.972Z,9.84
2023-03-20T23:54:28.636Z,9.82
2023-03-20T23:56:57.795Z,9.80
2023-03-20T23:59:27.236Z,9.79
